createdAt,value
2022-08-17T00:01:52.853Z,19.99
2022-08-17T00:04:23.673Z,19.99
2022-08-17T00:06:53.480Z,19.99
2022-08-17T00:09:26.197Z,19.93
2022-08-17T00:12:42.807Z,19.98
2022-08-17T00:14:44.238Z,20.06
2022-08-17T00:17:13.261Z,20.05
2022-08-17T00:19:43.304Z,20.04
2022-08-17T00:22:35.027Z,20.05
2022-08-17T00:25:02.904Z,20.05
2022-08-17T00:27:31.814Z,20.05
2022-08-17T00:30:00.717Z,20.05
2022-08-17T00:33:14.906Z,20.08
2022-08-17T00:35:23.293Z,20.05
2022-08-17T00:37:53.304Z,20.05
2022-08-17T00:40:24.717Z,20.05
2022-08-17T00:42:54.326Z,20.03
2022-08-17T00:45:23.328Z,20.02
2022-08-17T00:47:52.164Z,19.98
2022-08-17T00:50:21.308Z,19.98
2022-08-17T00:52:58.482Z,19.75
2022-08-17T00:55:29.420Z,19.98
2022-08-17T00:58:01.331Z,19.98
2022-08-17T01:00:34.509Z,19.95
2022-08-17T01:03:07.739Z,19.92
2022-08-17T01:05:42.407Z,19.91
2022-08-17T01:08:15.267Z,19.89
2022-08-17T01:11:00.582Z,19.67
2022-08-17T01:13:40.636Z,19.73
2022-08-17T01:16:17.125Z,19.78
2022-08-17T01:18:49.138Z,19.81
2022-08-17T01:21:24.797Z,19.78
2022-08-17T01:23:55.059Z,19.77
2022-08-17T01:26:24.448Z,19.76
2022-08-17T01:28:55.778Z,19.76
2022-08-17T01:31:29.330Z,19.79
2022-08-17T01:34:01.900Z,19.73
2022-08-17T01:36:31.210Z,19.58
2022-08-17T01:39:02.102Z,19.73
2022-08-17T01:41:31.298Z,19.74
2022-08-17T01:44:05.527Z,19.75
2022-08-17T01:46:37.484Z,19.75
2022-08-17T01:49:09.455Z,19.78
2022-08-17T01:51:39.594Z,19.78
2022-08-17T01:54:14.683Z,19.76
2022-08-17T01:56:47.094Z,19.62
2022-08-17T01:59:17.000Z,19.78
2022-08-17T02:01:46.208Z,20.42
2022-08-17T02:04:18.414Z,20.28
2022-08-17T02:06:54.362Z,20.22
2022-08-17T02:09:29.974Z,19.99
2022-08-17T02:12:37.133Z,19.77
2022-08-17T02:14:53.108Z,19.78
2022-08-17T02:17:22.363Z,19.84
2022-08-17T02:19:51.511Z,19.69
2022-08-17T02:22:21.229Z,19.85
2022-08-17T02:25:00.026Z,20.34
2022-08-17T02:27:30.837Z,20.29
2022-08-17T02:29:59.769Z,20.20
2022-08-17T02:32:28.867Z,20.43
2022-08-17T02:34:58.797Z,20.27
2022-08-17T02:37:28.697Z,20.30
2022-08-17T02:39:59.992Z,20.29
2022-08-17T02:42:34.734Z,20.12
2022-08-17T02:45:04.106Z,19.95
2022-08-17T02:47:33.313Z,20.61
2022-08-17T02:50:02.418Z,20.60
2022-08-17T02:52:42.959Z,20.49
2022-08-17T02:55:16.839Z,19.37
2022-08-17T02:57:46.550Z,20.15
2022-08-17T03:00:19.563Z,20.07
2022-08-17T03:02:48.965Z,20.27
2022-08-17T03:05:21.563Z,20.02
2022-08-17T03:07:50.467Z,20.09
2022-08-17T03:10:21.899Z,19.89
2022-08-17T03:12:51.024Z,19.73
2022-08-17T03:15:23.779Z,19.25
2022-08-17T03:17:53.044Z,19.14
2022-08-17T03:20:22.863Z,18.99
2022-08-17T03:22:54.125Z,18.94
2022-08-17T03:25:35.632Z,18.81
2022-08-17T03:28:05.432Z,18.74
2022-08-17T03:30:37.597Z,18.85
2022-08-17T03:33:09.977Z,18.83
2022-08-17T03:35:42.541Z,18.88
2022-08-17T03:38:15.871Z,18.54
2022-08-17T03:40:57.193Z,18.80
2022-08-17T03:43:29.831Z,18.76
2022-08-17T03:46:27.332Z,18.75
2022-08-17T03:49:15.589Z,18.70
2022-08-17T03:52:01.628Z,18.80
2022-08-17T03:54:48.307Z,18.71
2022-08-17T03:57:19.298Z,18.75
2022-08-17T03:59:48.666Z,18.69
2022-08-17T04:02:20.817Z,18.52
2022-08-17T04:04:51.330Z,18.70
2022-08-17T04:07:20.976Z,18.60
2022-08-17T04:09:50.091Z,18.66
2022-08-17T04:12:25.415Z,18.68
2022-08-17T04:14:55.266Z,18.53
2022-08-17T04:17:26.660Z,18.68
2022-08-17T04:19:58.075Z,18.63
2022-08-17T04:22:30.689Z,18.68
2022-08-17T04:25:08.771Z,18.74
2022-08-17T04:27:38.856Z,18.69
2022-08-17T04:30:08.780Z,18.63
2022-08-17T04:33:10.879Z,18.80
2022-08-17T04:35:41.851Z,18.82
2022-08-17T04:38:13.087Z,18.63
2022-08-17T04:40:59.617Z,18.74
2022-08-17T04:43:32.045Z,18.73
2022-08-17T04:46:05.749Z,18.45
2022-08-17T04:48:38.578Z,18.63
2022-08-17T04:51:10.379Z,18.71
2022-08-17T04:53:42.203Z,17.91
2022-08-17T04:56:16.900Z,18.60
2022-08-17T04:58:51.762Z,18.57
2022-08-17T05:01:23.290Z,18.51
2022-08-17T05:03:54.224Z,18.63
2022-08-17T05:06:23.684Z,18.69
2022-08-17T05:08:52.970Z,18.70
2022-08-17T05:11:22.204Z,18.68
2022-08-17T05:13:52.273Z,18.70
2022-08-17T05:16:22.369Z,18.73
2022-08-17T05:18:51.371Z,18.61
2022-08-17T05:21:24.588Z,18.72
2022-08-17T05:23:56.298Z,18.48
2022-08-17T05:26:27.574Z,18.77
2022-08-17T05:29:02.745Z,18.73
2022-08-17T05:31:32.413Z,18.62
2022-08-17T05:34:01.162Z,18.69
2022-08-17T05:36:41.934Z,18.68
2022-08-17T05:39:15.902Z,18.59
2022-08-17T05:41:48.854Z,18.59
2022-08-17T05:44:19.253Z,18.63
2022-08-17T05:46:51.885Z,18.60
2022-08-17T05:49:27.171Z,18.43
2022-08-17T05:52:10.848Z,18.53
2022-08-17T05:54:51.664Z,18.66
2022-08-17T05:57:42.410Z,18.66
2022-08-17T06:00:20.839Z,18.60
2022-08-17T06:03:04.957Z,18.42
2022-08-17T06:05:51.989Z,18.38
2022-08-17T06:08:31.663Z,18.36
2022-08-17T06:11:15.514Z,18.37
2022-08-17T06:14:09.144Z,18.40
2022-08-17T06:16:42.762Z,18.42
2022-08-17T06:19:16.909Z,18.42
2022-08-17T06:21:50.185Z,18.31
2022-08-17T06:24:36.136Z,18.29
2022-08-17T06:27:13.356Z,18.38
2022-08-17T06:29:50.105Z,18.51
2022-08-17T06:32:20.646Z,18.44
2022-08-17T06:34:49.840Z,18.38
2022-08-17T06:37:32.434Z,18.36
2022-08-17T06:40:11.509Z,18.35
2022-08-17T06:42:54.813Z,18.45
2022-08-17T06:45:39.018Z,18.49
2022-08-17T06:48:24.926Z,18.49
2022-08-17T06:51:00.204Z,18.42
2022-08-17T06:53:37.376Z,18.53
2022-08-17T06:56:09.939Z,18.17
2022-08-17T06:58:40.432Z,18.55
2022-08-17T07:01:12.446Z,18.61
2022-08-17T07:03:53.330Z,18.41
2022-08-17T07:06:25.486Z,18.72
2022-08-17T07:09:01.142Z,18.78
2022-08-17T07:11:35.847Z,18.68
2022-08-17T07:14:20.187Z,18.60
2022-08-17T07:16:52.261Z,18.69
2022-08-17T07:19:25.477Z,18.70
2022-08-17T07:22:08.998Z,18.74
2022-08-17T07:24:47.664Z,17.99
2022-08-17T07:27:21.352Z,18.83
2022-08-17T07:29:54.943Z,18.78
2022-08-17T07:32:27.306Z,18.79
2022-08-17T07:35:22.231Z,18.76
2022-08-17T07:38:24.395Z,18.74
2022-08-17T07:41:05.213Z,18.64
2022-08-17T07:43:36.687Z,18.61
2022-08-17T07:46:34.023Z,18.55
2022-08-17T07:49:25.984Z,18.84
2022-08-17T07:52:47.710Z,19.04
2022-08-17T07:54:50.176Z,19.12
2022-08-17T07:57:33.785Z,19.12
2022-08-17T08:00:26.636Z,19.29
2022-08-17T08:03:09.042Z,19.35
2022-08-17T08:05:51.008Z,19.47
2022-08-17T08:08:34.090Z,19.37
2022-08-17T08:11:10.472Z,19.40
2022-08-17T08:13:43.905Z,19.44
2022-08-17T08:16:24.812Z,19.39
2022-08-17T08:18:58.516Z,19.39
2022-08-17T08:21:36.637Z,19.37
2022-08-17T08:24:31.019Z,19.31
2022-08-17T08:27:09.206Z,19.32
2022-08-17T08:29:49.690Z,19.39
2022-08-17T08:32:23.849Z,19.55
2022-08-17T08:35:04.044Z,19.55
2022-08-17T08:37:43.598Z,19.01
2022-08-17T08:40:33.306Z,19.42
2022-08-17T08:43:16.898Z,19.46
2022-08-17T08:45:56.712Z,19.32
2022-08-17T08:49:10.286Z,19.49
2022-08-17T08:51:53.147Z,19.55
2022-08-17T08:54:35.153Z,19.46
2022-08-17T08:57:25.427Z,19.45
2022-08-17T09:00:12.836Z,19.47
2022-08-17T09:03:14.316Z,19.43
2022-08-17T09:06:06.141Z,19.36
2022-08-17T09:09:06.604Z,19.35
2022-08-17T09:12:02.302Z,19.35
2022-08-17T09:14:45.245Z,19.39
2022-08-17T09:17:20.749Z,19.39
2022-08-17T09:19:52.781Z,19.48
2022-08-17T09:22:33.583Z,19.31
2022-08-17T09:25:10.298Z,19.61
2022-08-17T09:27:51.433Z,19.69
2022-08-17T09:30:23.709Z,19.74
2022-08-17T09:32:57.479Z,19.87
2022-08-17T09:35:36.925Z,19.94
2022-08-17T09:38:18.519Z,19.84
2022-08-17T09:40:52.615Z,19.91
2022-08-17T09:43:31.686Z,19.81
2022-08-17T09:46:05.708Z,20.05
2022-08-17T09:48:41.423Z,20.05
2022-08-17T09:51:16.960Z,20.18
2022-08-17T09:53:47.056Z,20.14
2022-08-17T09:56:48.356Z,20.06
2022-08-17T09:59:38.661Z,20.06
2022-08-17T10:02:29.089Z,19.99
2022-08-17T10:05:04.251Z,19.80
2022-08-17T10:07:41.822Z,20.09
2022-08-17T10:10:16.852Z,20.08
2022-08-17T10:12:55.756Z,20.19
2022-08-17T10:15:36.706Z,20.18
2022-08-17T10:18:30.527Z,20.27
2022-08-17T10:21:24.406Z,20.26
2022-08-17T10:24:16.887Z,20.21
2022-08-17T10:26:56.089Z,20.25
2022-08-17T10:29:49.213Z,20.39
2022-08-17T10:32:32.741Z,20.42
2022-08-17T10:35:19.272Z,20.40
2022-08-17T10:38:09.840Z,20.42
2022-08-17T10:40:47.402Z,20.32
2022-08-17T10:43:31.082Z,20.28
2022-08-17T10:46:30.831Z,20.13
2022-08-17T10:49:23.231Z,20.31
2022-08-17T10:51:59.013Z,20.28
2022-08-17T10:54:42.724Z,20.22
2022-08-17T10:57:37.423Z,20.28
2022-08-17T11:00:12.970Z,20.25
2022-08-17T11:02:49.718Z,20.23
2022-08-17T11:05:58.948Z,20.29
2022-08-17T11:08:45.803Z,20.19
2022-08-17T11:11:40.615Z,20.12
2022-08-17T11:14:25.066Z,20.20
2022-08-17T11:17:15.179Z,20.21
2022-08-17T11:20:11.152Z,20.15
2022-08-17T11:23:04.209Z,20.18
2022-08-17T11:25:39.809Z,20.15
2022-08-17T11:28:20.130Z,20.21
2022-08-17T11:30:52.545Z,20.33
2022-08-17T11:33:58.282Z,20.14
2022-08-17T11:36:50.275Z,20.22
2022-08-17T11:39:40.923Z,20.26
2022-08-17T11:42:28.891Z,20.12
2022-08-17T11:45:00.407Z,20.32
2022-08-17T11:48:23.803Z,20.35
2022-08-17T11:51:11.626Z,20.36
2022-08-17T11:54:31.147Z,20.38
2022-08-17T11:56:52.943Z,20.38
2022-08-17T12:00:06.158Z,20.41
2022-08-17T12:02:47.556Z,20.22
2022-08-17T12:05:39.175Z,20.12
2022-08-17T12:08:21.346Z,20.02
2022-08-17T12:11:01.556Z,20.05
2022-08-17T12:13:38.700Z,19.70
2022-08-17T12:16:17.615Z,19.79
2022-08-17T12:18:53.428Z,19.72
2022-08-17T12:21:45.098Z,19.70
2022-08-17T12:24:24.152Z,19.77
2022-08-17T12:26:56.481Z,19.71
2022-08-17T12:29:39.045Z,19.87
2022-08-17T12:32:17.837Z,19.72
2022-08-17T12:34:49.999Z,19.73
2022-08-17T12:37:24.648Z,19.75
2022-08-17T12:39:57.741Z,19.82
2022-08-17T12:42:31.279Z,19.54
2022-08-17T12:45:06.659Z,19.27
2022-08-17T12:47:38.831Z,19.38
2022-08-17T12:50:28.742Z,19.52
2022-08-17T12:53:02.317Z,19.50
2022-08-17T12:55:38.994Z,19.44
2022-08-17T12:58:14.364Z,19.44
2022-08-17T13:00:51.281Z,19.36
2022-08-17T13:03:24.732Z,19.43
2022-08-17T13:05:59.608Z,19.44
2022-08-17T13:08:31.759Z,19.37
2022-08-17T13:11:03.246Z,19.42
2022-08-17T13:13:34.972Z,19.40
2022-08-17T13:16:06.733Z,19.48
2022-08-17T13:18:44.368Z,19.41
2022-08-17T13:21:26.944Z,19.30
2022-08-17T13:23:59.065Z,19.56
2022-08-17T13:26:35.241Z,19.54
2022-08-17T13:29:07.655Z,19.54
2022-08-17T13:31:56.692Z,19.55
2022-08-17T13:35:07.769Z,19.55
2022-08-17T13:37:33.862Z,19.53
2022-08-17T13:40:29.427Z,19.54
2022-08-17T13:42:58.966Z,19.47
2022-08-17T13:45:53.026Z,19.64
2022-08-17T13:48:28.489Z,19.70
2022-08-17T13:51:27.310Z,19.86
2022-08-17T13:54:00.212Z,19.88
2022-08-17T13:56:45.399Z,19.89
2022-08-17T13:59:17.643Z,19.95
2022-08-17T14:02:09.662Z,19.90
2022-08-17T14:04:40.804Z,19.84
2022-08-17T14:07:30.204Z,20.04
2022-08-17T14:10:02.377Z,19.94
2022-08-17T14:12:34.322Z,19.94
2022-08-17T14:15:03.765Z,20.09
2022-08-17T14:17:38.105Z,20.15
2022-08-17T14:20:11.131Z,20.06
2022-08-17T14:22:45.904Z,20.24
2022-08-17T14:25:17.700Z,20.24
2022-08-17T14:27:53.245Z,20.19
2022-08-17T14:30:24.674Z,20.07
2022-08-17T14:32:58.099Z,20.12
2022-08-17T14:35:29.340Z,20.24
2022-08-17T14:37:59.829Z,20.30
2022-08-17T14:40:29.538Z,20.42
2022-08-17T14:43:02.192Z,20.47
2022-08-17T14:45:32.618Z,20.56
2022-08-17T14:48:05.853Z,20.40
2022-08-17T14:50:36.098Z,20.62
2022-08-17T14:53:08.173Z,20.71
2022-08-17T14:55:39.987Z,20.74
2022-08-17T14:58:10.036Z,20.72
2022-08-17T15:00:41.432Z,20.63
2022-08-17T15:03:11.644Z,20.78
2022-08-17T15:05:44.291Z,20.68
2022-08-17T15:08:14.799Z,20.69
2022-08-17T15:10:44.825Z,20.87
2022-08-17T15:13:20.694Z,20.77
2022-08-17T15:15:51.097Z,20.74
2022-08-17T15:18:20.035Z,20.72
2022-08-17T15:20:50.659Z,20.76
2022-08-17T15:23:23.499Z,20.74
2022-08-17T15:25:55.031Z,20.80
2022-08-17T15:28:23.890Z,20.78
2022-08-17T15:30:53.664Z,20.82
2022-08-17T15:33:29.156Z,20.83
2022-08-17T15:36:09.192Z,20.08
2022-08-17T15:38:40.358Z,20.66
2022-08-17T15:41:12.609Z,20.57
2022-08-17T15:43:41.306Z,20.52
2022-08-17T15:46:17.366Z,20.44
2022-08-17T15:48:48.308Z,20.44
2022-08-17T15:51:19.389Z,20.51
2022-08-17T15:53:52.134Z,20.54
2022-08-17T15:56:23.461Z,20.44
2022-08-17T15:58:56.298Z,20.41
2022-08-17T16:02:20.001Z,20.53
2022-08-17T16:04:30.184Z,20.32
2022-08-17T16:07:00.825Z,20.35
2022-08-17T16:09:33.010Z,20.46
2022-08-17T16:12:17.324Z,20.24
2022-08-17T16:14:53.403Z,20.05
2022-08-17T16:17:39.830Z,20.15
2022-08-17T16:20:19.528Z,20.31
2022-08-17T16:22:51.575Z,20.38
2022-08-17T16:25:51.975Z,20.14
2022-08-17T16:28:21.926Z,20.37
2022-08-17T16:30:50.686Z,20.47
2022-08-17T16:33:21.967Z,20.36
2022-08-17T16:35:50.735Z,20.24
2022-08-17T16:38:22.285Z,20.36
2022-08-17T16:40:54.655Z,20.30
2022-08-17T16:43:25.690Z,20.25
2022-08-17T16:45:54.499Z,20.27
2022-08-17T16:48:44.481Z,20.26
2022-08-17T16:51:13.256Z,20.33
2022-08-17T16:53:44.239Z,20.38
2022-08-17T16:56:18.892Z,20.62
2022-08-17T16:58:47.843Z,20.57
2022-08-17T17:01:22.033Z,20.37
2022-08-17T17:03:58.161Z,20.31
2022-08-17T17:06:37.037Z,20.25
2022-08-17T17:09:13.236Z,20.16
2022-08-17T17:11:47.240Z,20.36
2022-08-17T17:14:22.315Z,20.50
2022-08-17T17:16:59.503Z,20.52
2022-08-17T17:19:37.671Z,20.54
2022-08-17T17:22:15.421Z,20.60
2022-08-17T17:24:52.781Z,20.43
2022-08-17T17:27:35.327Z,20.50
2022-08-17T17:30:10.066Z,20.49
2022-08-17T17:32:42.194Z,20.43
2022-08-17T17:35:21.534Z,20.61
2022-08-17T17:37:51.691Z,20.50
2022-08-17T17:40:24.449Z,20.40
2022-08-17T17:43:09.293Z,20.29
2022-08-17T17:45:55.124Z,19.68
2022-08-17T17:48:24.362Z,19.98
2022-08-17T17:51:02.412Z,19.94
2022-08-17T17:53:50.338Z,19.96
2022-08-17T17:56:43.065Z,20.02
2022-08-17T17:59:26.786Z,19.96
2022-08-17T18:02:07.902Z,19.87
2022-08-17T18:04:46.132Z,19.89
2022-08-17T18:07:23.822Z,19.71
2022-08-17T18:10:05.529Z,19.69
2022-08-17T18:12:59.767Z,19.35
2022-08-17T18:15:37.985Z,19.60
2022-08-17T18:18:44.729Z,19.60
2022-08-17T18:21:22.554Z,19.52
2022-08-17T18:23:55.069Z,19.49
2022-08-17T18:26:55.326Z,19.49
2022-08-17T18:29:32.247Z,19.47
2022-08-17T18:32:22.732Z,19.51
2022-08-17T18:34:53.975Z,19.52
2022-08-17T18:37:36.795Z,19.53
2022-08-17T18:40:38.065Z,19.50
2022-08-17T18:43:11.421Z,19.35
2022-08-17T18:45:47.887Z,19.38
2022-08-17T18:48:50.080Z,19.27
2022-08-17T18:51:26.281Z,19.26
2022-08-17T18:54:17.290Z,19.29
2022-08-17T18:56:51.205Z,19.02
2022-08-17T18:59:34.513Z,19.13
2022-08-17T19:02:32.576Z,19.17
2022-08-17T19:05:28.881Z,19.21
2022-08-17T19:08:19.435Z,19.17
2022-08-17T19:10:52.980Z,19.18
2022-08-17T19:13:26.819Z,19.19
2022-08-17T19:16:15.137Z,19.22
2022-08-17T19:18:50.588Z,18.83
2022-08-17T19:21:26.350Z,19.06
2022-08-17T19:24:00.140Z,18.85
2022-08-17T19:26:53.853Z,18.99
2022-08-17T19:29:30.254Z,19.14
2022-08-17T19:32:01.667Z,18.98
2022-08-17T19:34:34.494Z,18.95
2022-08-17T19:37:12.681Z,18.93
2022-08-17T19:39:51.801Z,19.00
2022-08-17T19:42:33.134Z,18.99
2022-08-17T19:45:08.443Z,18.76
2022-08-17T19:47:55.419Z,19.03
2022-08-17T19:50:39.373Z,19.03
2022-08-17T19:53:20.768Z,19.10
2022-08-17T19:55:59.586Z,19.12
2022-08-17T19:58:42.790Z,19.09
2022-08-17T20:01:19.109Z,19.11
2022-08-17T20:03:57.774Z,19.00
2022-08-17T20:06:30.110Z,18.98
2022-08-17T20:09:04.803Z,18.88
2022-08-17T20:11:41.316Z,18.86
2022-08-17T20:14:15.483Z,18.91
2022-08-17T20:16:44.444Z,18.81
2022-08-17T20:19:22.825Z,18.75
2022-08-17T20:21:57.726Z,18.72
2022-08-17T20:24:34.916Z,18.83
2022-08-17T20:27:15.242Z,18.80
2022-08-17T20:30:09.427Z,18.83
2022-08-17T20:32:52.571Z,18.81
2022-08-17T20:35:26.146Z,18.84
2022-08-17T20:38:02.153Z,18.87
2022-08-17T20:40:38.525Z,18.79
2022-08-17T20:43:45.916Z,18.78
2022-08-17T20:46:24.792Z,18.83
2022-08-17T20:48:56.881Z,18.89
2022-08-17T20:51:30.489Z,19.10
2022-08-17T20:54:37.739Z,18.98
2022-08-17T20:57:14.415Z,19.01
2022-08-17T21:00:02.688Z,18.93
2022-08-17T21:02:37.136Z,18.93
2022-08-17T21:05:27.227Z,18.83
2022-08-17T21:08:02.528Z,18.86
2022-08-17T21:10:36.740Z,18.89
2022-08-17T21:13:34.874Z,18.74
2022-08-17T21:16:23.437Z,18.82
2022-08-17T21:19:01.172Z,18.81
2022-08-17T21:21:41.189Z,18.78
2022-08-17T21:24:22.347Z,18.66
2022-08-17T21:27:02.373Z,18.84
2022-08-17T21:29:33.973Z,18.88
2022-08-17T21:32:24.214Z,18.66
2022-08-17T21:35:26.735Z,18.76
2022-08-17T21:38:03.609Z,18.72
2022-08-17T21:40:34.746Z,18.63
2022-08-17T21:43:23.455Z,18.46
2022-08-17T21:46:01.303Z,18.46
2022-08-17T21:48:32.458Z,18.54
2022-08-17T21:51:08.285Z,18.59
2022-08-17T21:53:41.466Z,18.61
2022-08-17T21:56:13.426Z,18.63
2022-08-17T21:58:48.457Z,18.59
2022-08-17T22:01:25.041Z,18.28
2022-08-17T22:04:04.931Z,18.60
2022-08-17T22:06:41.679Z,18.57
2022-08-17T22:09:17.917Z,18.42
2022-08-17T22:12:04.486Z,18.55
2022-08-17T22:14:52.301Z,18.61
2022-08-17T22:17:26.801Z,18.53
2022-08-17T22:19:59.620Z,18.58
2022-08-17T22:22:32.453Z,18.55
2022-08-17T22:25:01.432Z,18.41
2022-08-17T22:27:52.730Z,18.33
2022-08-17T22:30:33.125Z,18.51
2022-08-17T22:33:29.845Z,18.52
2022-08-17T22:36:30.379Z,18.54
2022-08-17T22:39:01.230Z,18.54
2022-08-17T22:41:53.995Z,18.47
2022-08-17T22:44:30.155Z,18.49
2022-08-17T22:47:02.727Z,18.33
2022-08-17T22:49:53.296Z,18.53
2022-08-17T22:52:34.181Z,18.51
2022-08-17T22:55:25.016Z,18.51
2022-08-17T22:58:12.122Z,18.55
2022-08-17T23:00:43.745Z,18.53
2022-08-17T23:03:19.006Z,18.53
2022-08-17T23:06:11.386Z,18.44
2022-08-17T23:08:56.201Z,18.49
2022-08-17T23:11:42.845Z,18.52
2022-08-17T23:14:18.448Z,18.52
2022-08-17T23:16:48.703Z,18.37
2022-08-17T23:19:20.022Z,18.54
2022-08-17T23:21:51.053Z,18.45
2022-08-17T23:24:24.794Z,18.32
2022-08-17T23:26:54.400Z,18.33
2022-08-17T23:29:23.035Z,18.35
2022-08-17T23:31:52.515Z,18.08
2022-08-17T23:34:21.214Z,18.37
2022-08-17T23:36:53.249Z,18.37
2022-08-17T23:39:24.345Z,18.39
2022-08-17T23:41:54.030Z,18.52
2022-08-17T23:44:24.434Z,18.58
2022-08-17T23:46:54.077Z,18.54
2022-08-17T23:49:26.209Z,18.74
2022-08-17T23:52:00.139Z,18.63
2022-08-17T23:54:35.315Z,18.58
2022-08-17T23:57:05.955Z,18.58
2022-08-17T23:59:36.868Z,18.30
